Time;durP1;ratioP1;P1;durP2;ratioP2;P2;SDS_P1;SDS_P2;PMS_P1;PMS_P2;Temp;Humidity;BMP_temperature;BMP_pressure;BME280_temperature;BME280_humidity;BME280_pressure;Samples;Min_cycle;Max_cycle;Signal;HPM_P1;HPM_P2
2022/06/08 00:01:08;;;;;;;4.97;1.90;;;;;;;;;;5095501;28;20078;-65
2022/06/08 00:03:39;;;;;;;5.85;1.30;;;;;;;;;;5095622;28;20460;-65
2022/06/08 00:06:06;;;;;;;5.93;1.42;;;;;;;;;;5095822;28;20036;-68
2022/06/08 00:08:32;;;;;;;4.70;1.25;;;;;;;;;;5095784;28;20036;-65
2022/06/08 00:10:58;;;;;;;4.20;1.67;;;;;;;;;;5094853;28;20028;-65
2022/06/08 00:13:24;;;;;;;8.50;0.90;;;;;;;;;;5095576;28;20434;-69
2022/06/08 00:15:51;;;;;;;22.25;0.77;;;;;;;;;;5095523;28;20032;-65
2022/06/08 00:18:17;;;;;;;10.00;0.45;;;;;;;;;;5095743;28;20397;-68
2022/06/08 00:20:43;;;;;;;2.25;0.45;;;;;;;;;;5095239;28;20036;-68
2022/06/08 00:23:09;;;;;;;7.15;0.50;;;;;;;;;;5095375;28;20495;-66
2022/06/08 00:25:35;;;;;;;5.18;0.47;;;;;;;;;;5095057;28;20432;-68
2022/06/08 00:28:01;;;;;;;3.08;0.40;;;;;;;;;;5095156;28;20028;-65
2022/06/08 00:30:27;;;;;;;2.75;0.50;;;;;;;;;;5095305;28;20040;-65
2022/06/08 00:32:53;;;;;;;4.45;0.40;;;;;;;;;;5095171;28;20032;-65
2022/06/08 00:35:19;;;;;;;1.48;0.32;;;;;;;;;;5095445;28;20062;-66
2022/06/08 00:37:46;;;;;;;0.93;0.40;;;;;;;;;;5094861;28;20044;-66
2022/06/08 00:40:13;;;;;;;4.70;0.45;;;;;;;;;;5095392;28;20070;-66
2022/06/08 00:42:40;;;;;;;1.70;0.50;;;;;;;;;;5094857;28;20056;-65
2022/06/08 00:45:08;;;;;;;3.00;0.40;;;;;;;;;;5095025;28;20030;-65
2022/06/08 00:47:40;;;;;;;3.15;0.47;;;;;;;;;;5094735;28;20119;-67
2022/06/08 00:50:26;;;;;;;9.70;0.40;;;;;;;;;;5094747;28;20046;-65
2022/06/08 00:52:53;;;;;;;3.85;0.60;;;;;;;;;;5094555;28;20040;-65
2022/06/08 00:55:21;;;;;;;1.15;0.22;;;;;;;;;;5095050;28;20063;-65
2022/06/08 00:57:52;;;;;;;8.80;0.40;;;;;;;;;;5093271;28;20511;-65
2022/06/08 01:00:20;;;;;;;3.90;0.50;;;;;;;;;;5091742;28;20032;-65
2022/06/08 01:02:47;;;;;;;1.80;0.13;;;;;;;;;;5091538;28;20032;-67
2022/06/08 01:05:17;;;;;;;2.88;0.30;;;;;;;;;;5074956;28;20036;-66
2022/06/08 01:07:44;;;;;;;1.95;0.40;;;;;;;;;;5094196;28;20043;-65
2022/06/08 01:10:18;;;;;;;4.10;0.50;;;;;;;;;;5094463;28;20054;-65
2022/06/08 01:12:45;;;;;;;3.72;0.30;;;;;;;;;;5094297;28;20044;-65
2022/06/08 01:15:12;;;;;;;6.85;0.43;;;;;;;;;;5094013;28;20036;-65
2022/06/08 01:17:38;;;;;;;1.05;0.30;;;;;;;;;;5094016;28;20040;-66
2022/06/08 01:20:05;;;;;;;3.03;0.40;;;;;;;;;;5093544;28;20115;-68
2022/06/08 01:22:31;;;;;;;0.70;0.30;;;;;;;;;;5092744;28;20036;-66
2022/06/08 01:24:57;;;;;;;4.47;0.47;;;;;;;;;;5093630;28;20028;-69
2022/06/08 01:27:28;;;;;;;6.22;0.40;;;;;;;;;;5094049;28;20063;-65
2022/06/08 01:29:54;;;;;;;5.07;0.50;;;;;;;;;;5093725;28;20028;-65
2022/06/08 01:32:34;;;;;;;4.25;0.32;;;;;;;;;;5093971;28;20024;-69
2022/06/08 01:35:01;;;;;;;2.95;0.50;;;;;;;;;;5093635;28;20032;-66
2022/06/08 01:37:39;;;;;;;7.50;0.60;;;;;;;;;;5093781;28;20080;-66
2022/06/08 01:40:05;;;;;;;6.78;0.50;;;;;;;;;;5093894;28;20119;-65
2022/06/08 01:42:37;;;;;;;3.65;0.40;;;;;;;;;;5093932;28;20071;-68
2022/06/08 01:48:07;;;;;;;3.08;0.40;;;;;;;;;;5081151;28;20343;-66
2022/06/08 01:50:33;;;;;;;4.03;0.40;;;;;;;;;;5093838;28;20477;-65
2022/06/08 01:53:05;;;;;;;3.40;0.30;;;;;;;;;;5093649;28;20036;-65
2022/06/08 01:55:46;;;;;;;1.85;0.30;;;;;;;;;;5093599;28;20093;-67
2022/06/08 01:58:18;;;;;;;7.55;0.50;;;;;;;;;;5093830;28;20039;-67
2022/06/08 02:00:51;;;;;;;2.28;0.22;;;;;;;;;;5093403;28;20447;-65
2022/06/08 02:03:25;;;;;;;5.28;0.50;;;;;;;;;;5093504;28;20040;-67
2022/06/08 02:05:51;;;;;;;1.83;0.35;;;;;;;;;;5093274;28;20048;-65
2022/06/08 02:08:25;;;;;;;2.25;0.88;;;;;;;;;;5093164;28;20036;-68
2022/06/08 02:10:54;;;;;;;0.63;0.30;;;;;;;;;;5093636;28;20381;-66
2022/06/08 02:13:40;;;;;;;1.70;0.30;;;;;;;;;;5093594;28;20040;-68
2022/06/08 02:16:08;;;;;;;3.85;0.30;;;;;;;;;;5092884;28;20427;-65
2022/06/08 02:18:40;;;;;;;2.72;0.30;;;;;;;;;;5093142;28;20043;-65
2022/06/08 02:21:19;;;;;;;0.57;0.35;;;;;;;;;;5093217;28;20497;-65
2022/06/08 02:23:54;;;;;;;0.57;0.20;;;;;;;;;;5093099;28;20036;-65
2022/06/08 02:26:33;;;;;;;0.63;0.20;;;;;;;;;;5092930;28;20131;-68
2022/06/08 02:29:02;;;;;;;2.92;0.20;;;;;;;;;;5093049;28;20484;-65
2022/06/08 02:31:38;;;;;;;1.92;0.30;;;;;;;;;;5092924;28;20048;-67
2022/06/08 02:36:55;;;;;;;4.90;0.35;;;;;;;;;;5092864;28;20515;-65
2022/06/08 02:39:25;;;;;;;6.65;0.40;;;;;;;;;;5092915;28;20044;-65
2022/06/08 02:41:54;;;;;;;0.57;0.20;;;;;;;;;;5093024;28;20049;-66
2022/06/08 02:44:23;;;;;;;5.05;0.47;;;;;;;;;;5092947;28;20047;-66
2022/06/08 02:46:52;;;;;;;1.77;0.35;;;;;;;;;;5093093;28;20044;-65
2022/06/08 02:49:18;;;;;;;2.92;0.50;;;;;;;;;;5093051;28;20480;-67
2022/06/08 02:51:46;;;;;;;1.38;0.35;;;;;;;;;;5092920;28;20032;-66
2022/06/08 02:54:20;;;;;;;1.42;0.28;;;;;;;;;;5092661;28;20040;-66
2022/06/08 02:56:54;;;;;;;1.20;0.40;;;;;;;;;;5089568;28;20481;-66
2022/06/08 02:59:39;;;;;;;0.38;0.22;;;;;;;;;;5090025;28;20032;-65
2022/06/08 03:02:17;;;;;;;2.47;0.25;;;;;;;;;;5092813;28;20082;-66
2022/06/08 03:05:08;;;;;;;1.38;0.20;;;;;;;;;;5092473;28;20055;-65
2022/06/08 03:07:41;;;;;;;5.78;0.52;;;;;;;;;;5087259;28;20044;-66
2022/06/08 03:10:08;;;;;;;3.38;0.30;;;;;;;;;;5092675;28;20032;-68
2022/06/08 03:12:39;;;;;;;0.77;0.25;;;;;;;;;;5092774;28;20036;-65
2022/06/08 03:15:07;;;;;;;1.45;0.30;;;;;;;;;;5092634;28;20058;-66
2022/06/08 03:17:34;;;;;;;0.47;0.10;;;;;;;;;;5092741;28;20488;-65
2022/06/08 03:20:01;;;;;;;1.60;0.30;;;;;;;;;;5092471;28;20503;-68
2022/06/08 03:22:28;;;;;;;4.32;0.30;;;;;;;;;;5092373;28;20107;-66
2022/06/08 03:24:54;;;;;;;1.88;0.28;;;;;;;;;;5092377;28;20074;-66
2022/06/08 03:27:21;;;;;;;0.40;0.20;;;;;;;;;;5092362;28;20101;-65
2022/06/08 03:29:47;;;;;;;2.38;0.63;;;;;;;;;;5092504;28;20032;-65
2022/06/08 03:32:13;;;;;;;2.75;0.20;;;;;;;;;;5092689;28;20499;-69
2022/06/08 03:34:40;;;;;;;1.67;0.40;;;;;;;;;;5092384;28;20058;-66
2022/06/08 03:37:06;;;;;;;0.52;0.22;;;;;;;;;;5092464;28;20113;-66
2022/06/08 03:39:33;;;;;;;0.95;0.30;;;;;;;;;;5092245;28;20381;-66
2022/06/08 03:41:59;;;;;;;1.08;0.20;;;;;;;;;;5092516;28;20123;-65
2022/06/08 03:44:25;;;;;;;3.42;0.50;;;;;;;;;;5092782;28;20474;-65
2022/06/08 03:46:54;;;;;;;2.28;0.30;;;;;;;;;;5095853;28;20131;-65
2022/06/08 03:49:22;;;;;;;4.45;0.40;;;;;;;;;;5096109;28;20059;-69
2022/06/08 03:51:49;;;;;;;1.02;0.22;;;;;;;;;;5095953;28;20036;-65
2022/06/08 03:54:17;;;;;;;1.17;0.30;;;;;;;;;;5095902;28;20059;-67
2022/06/08 03:56:45;;;;;;;0.40;0.20;;;;;;;;;;5095637;28;20040;-68
2022/06/08 03:59:11;;;;;;;1.30;0.30;;;;;;;;;;5095880;28;20032;-66
2022/06/08 04:01:37;;;;;;;0.68;0.30;;;;;;;;;;5095533;28;20028;-66
2022/06/08 04:04:03;;;;;;;1.70;0.30;;;;;;;;;;5095737;28;20071;-69
2022/06/08 04:06:30;;;;;;;2.13;0.30;;;;;;;;;;5095416;28;20039;-65
2022/06/08 04:08:56;;;;;;;2.50;0.25;;;;;;;;;;5095647;28;20032;-66
2022/06/08 04:11:22;;;;;;;0.40;0.20;;;;;;;;;;5095478;28;20075;-66
2022/06/08 04:13:48;;;;;;;1.23;0.30;;;;;;;;;;5095365;28;20041;-66
2022/06/08 04:16:15;;;;;;;6.35;0.20;;;;;;;;;;5095369;28;20063;-66
2022/06/08 04:18:42;;;;;;;1.08;0.20;;;;;;;;;;5095422;28;20032;-66
2022/06/08 04:21:09;;;;;;;1.13;0.40;;;;;;;;;;5095270;28;20036;-68
2022/06/08 04:23:37;;;;;;;2.42;0.68;;;;;;;;;;5095156;28;20024;-65
2022/06/08 04:26:03;;;;;;;6.97;0.98;;;;;;;;;;5095188;28;20051;-69
2022/06/08 04:28:29;;;;;;;3.58;0.30;;;;;;;;;;5095360;28;20028;-66
2022/06/08 04:30:55;;;;;;;3.40;0.30;;;;;;;;;;5095051;28;20397;-65
2022/06/08 04:33:22;;;;;;;0.90;0.30;;;;;;;;;;5095061;28;20033;-64
2022/06/08 04:35:48;;;;;;;1.38;0.30;;;;;;;;;;5094643;28;20131;-66
2022/06/08 04:38:14;;;;;;;1.13;0.30;;;;;;;;;;5094813;28;20522;-66
2022/06/08 04:40:40;;;;;;;1.42;0.40;;;;;;;;;;5094749;28;20036;-65
2022/06/08 04:43:07;;;;;;;3.22;0.30;;;;;;;;;;5095043;28;20036;-65
2022/06/08 04:45:35;;;;;;;1.17;0.30;;;;;;;;;;5094651;28;20040;-65
2022/06/08 04:48:01;;;;;;;2.35;0.30;;;;;;;;;;5094490;28;20071;-66
2022/06/08 04:50:28;;;;;;;0.90;0.30;;;;;;;;;;5094990;28;20044;-66
2022/06/08 04:52:54;;;;;;;10.18;1.80;;;;;;;;;;5094755;28;20028;-65
2022/06/08 04:55:22;;;;;;;15.35;2.35;;;;;;;;;;5094778;28;20039;-66
2022/06/08 04:57:48;;;;;;;15.43;1.73;;;;;;;;;;5094472;28;20028;-66
2022/06/08 05:00:17;;;;;;;2.50;0.60;;;;;;;;;;5093928;28;20032;-66
2022/06/08 05:02:44;;;;;;;4.45;0.50;;;;;;;;;;5093358;28;20093;-66
2022/06/08 05:05:16;;;;;;;6.25;0.50;;;;;;;;;;5093751;28;20039;-66
2022/06/08 05:07:42;;;;;;;1.98;0.50;;;;;;;;;;5094045;28;20107;-67
2022/06/08 05:10:09;;;;;;;1.45;0.40;;;;;;;;;;5094145;28;20404;-65
2022/06/08 05:12:36;;;;;;;1.10;0.30;;;;;;;;;;5094058;28;20032;-66
2022/06/08 05:15:02;;;;;;;1.95;0.57;;;;;;;;;;5093674;28;20392;-66
2022/06/08 05:17:28;;;;;;;3.83;0.55;;;;;;;;;;5093943;28;20097;-65
2022/06/08 05:19:54;;;;;;;0.85;0.30;;;;;;;;;;5094097;28;20469;-66
2022/06/08 05:22:20;;;;;;;2.15;0.38;;;;;;;;;;5093148;28;20063;-65
2022/06/08 05:24:46;;;;;;;4.53;0.40;;;;;;;;;;5093274;28;20036;-66
2022/06/08 05:27:12;;;;;;;1.35;0.47;;;;;;;;;;5092908;28;20123;-66
2022/06/08 05:29:38;;;;;;;4.65;1.13;;;;;;;;;;5090292;28;20028;-66
2022/06/08 05:32:04;;;;;;;5.18;1.17;;;;;;;;;;5093363;28;20086;-65
2022/06/08 05:34:30;;;;;;;7.82;1.10;;;;;;;;;;5093945;28;20028;-65
2022/06/08 05:36:56;;;;;;;7.38;0.77;;;;;;;;;;5093399;28;20118;-64
2022/06/08 05:39:23;;;;;;;2.28;0.77;;;;;;;;;;5093697;28;20060;-66
2022/06/08 05:41:49;;;;;;;1.75;0.50;;;;;;;;;;5093390;28;20043;-66
2022/06/08 05:44:15;;;;;;;3.95;0.60;;;;;;;;;;5093373;28;20035;-65
2022/06/08 05:46:41;;;;;;;3.75;0.60;;;;;;;;;;5093197;28;20044;-67
2022/06/08 05:49:07;;;;;;;2.72;0.60;;;;;;;;;;5093231;28;20028;-64
2022/06/08 05:51:33;;;;;;;4.85;0.90;;;;;;;;;;5093316;28;20453;-65
2022/06/08 05:53:59;;;;;;;4.80;1.00;;;;;;;;;;5092917;28;20086;-66
2022/06/08 05:56:25;;;;;;;3.00;0.80;;;;;;;;;;5093244;28;20480;-66
2022/06/08 05:58:51;;;;;;;18.50;1.30;;;;;;;;;;5092302;28;20401;-61
2022/06/08 06:01:17;;;;;;;10.18;1.05;;;;;;;;;;5092778;28;20043;-67
2022/06/08 06:03:43;;;;;;;2.47;0.50;;;;;;;;;;5093026;28;20032;-63
2022/06/08 06:06:09;;;;;;;3.40;0.70;;;;;;;;;;5092363;28;20047;-64
2022/06/08 06:08:36;;;;;;;2.20;0.82;;;;;;;;;;5091910;28;20073;-63
2022/06/08 06:11:02;;;;;;;14.38;0.82;;;;;;;;;;5092148;28;20046;-64
2022/06/08 06:13:29;;;;;;;7.68;0.90;;;;;;;;;;5092273;28;20389;-64
2022/06/08 06:15:57;;;;;;;4.93;0.73;;;;;;;;;;5045108;28;20056;-64
2022/06/08 06:18:23;;;;;;;5.63;0.65;;;;;;;;;;5072336;28;20032;-64
2022/06/08 06:20:49;;;;;;;3.17;0.40;;;;;;;;;;5072453;28;20044;-68
2022/06/08 06:23:15;;;;;;;3.33;0.50;;;;;;;;;;5072252;28;20037;-64
2022/06/08 06:25:41;;;;;;;2.08;0.50;;;;;;;;;;5072061;28;20040;-65
2022/06/08 06:28:07;;;;;;;3.50;0.73;;;;;;;;;;5072588;28;20477;-66
2022/06/08 06:30:33;;;;;;;9.40;1.20;;;;;;;;;;5072699;28;20438;-63
2022/06/08 06:32:59;;;;;;;2.42;0.47;;;;;;;;;;5072513;28;20028;-64
2022/06/08 06:35:29;;;;;;;3.53;0.50;;;;;;;;;;5072571;28;20067;-62
2022/06/08 06:37:55;;;;;;;2.42;0.50;;;;;;;;;;5072390;28;20091;-62
2022/06/08 06:40:21;;;;;;;2.63;0.80;;;;;;;;;;5072149;28;20036;-62
2022/06/08 06:42:47;;;;;;;14.52;0.80;;;;;;;;;;5072547;28;20033;-64
2022/06/08 06:45:14;;;;;;;7.53;0.70;;;;;;;;;;5072473;28;20385;-62
2022/06/08 06:47:40;;;;;;;3.40;0.82;;;;;;;;;;5072515;28;20094;-62
2022/06/08 06:50:08;;;;;;;5.47;0.50;;;;;;;;;;5072260;28;20037;-62
2022/06/08 06:52:34;;;;;;;9.25;1.08;;;;;;;;;;5072560;28;20024;-62
2022/06/08 06:55:00;;;;;;;5.30;0.73;;;;;;;;;;5072775;28;20040;-62
2022/06/08 06:57:26;;;;;;;3.97;0.60;;;;;;;;;;5072430;28;20040;-62
2022/06/08 06:59:52;;;;;;;7.85;0.60;;;;;;;;;;5072488;28;20379;-62
2022/06/08 07:02:20;;;;;;;6.00;0.70;;;;;;;;;;5068128;28;20031;-67
2022/06/08 07:04:47;;;;;;;2.40;0.50;;;;;;;;;;5055614;28;20061;-71
2022/06/08 07:07:13;;;;;;;5.25;0.60;;;;;;;;;;5051725;28;20045;-68
2022/06/08 07:09:39;;;;;;;3.08;0.45;;;;;;;;;;5063192;28;20033;-69
2022/06/08 07:12:06;;;;;;;1.95;0.52;;;;;;;;;;5061651;28;20037;-63
2022/06/08 07:14:32;;;;;;;4.80;0.90;;;;;;;;;;5051719;28;20037;-74
2022/06/08 07:16:59;;;;;;;6.07;0.70;;;;;;;;;;5059219;28;20033;-73
2022/06/08 07:19:25;;;;;;;3.47;0.50;;;;;;;;;;5052122;28;20033;-73
2022/06/08 07:21:51;;;;;;;1.88;0.40;;;;;;;;;;5075053;28;20033;-64
2022/06/08 07:24:31;;;;;;;5.20;0.70;;;;;;;;;;5075834;28;20546;-65
2022/06/08 07:26:57;;;;;;;0.82;0.43;;;;;;;;;;5075868;28;20465;-68
2022/06/08 07:29:23;;;;;;;3.72;0.43;;;;;;;;;;5076167;28;20079;-64
2022/06/08 07:31:50;;;;;;;4.22;0.50;;;;;;;;;;5075296;28;20131;-73
2022/06/08 07:34:17;;;;;;;3.92;0.55;;;;;;;;;;5075595;28;20032;-62
2022/06/08 07:36:46;;;;;;;4.70;0.90;;;;;;;;;;5074731;28;20037;-73
2022/06/08 07:39:15;;;;;;;2.97;0.50;;;;;;;;;;5075275;28;20446;-74
2022/06/08 07:41:42;;;;;;;0.43;0.28;;;;;;;;;;5075496;28;20381;-64
2022/06/08 07:44:08;;;;;;;1.60;0.52;;;;;;;;;;5075226;28;20156;-63
2022/06/08 07:46:34;;;;;;;3.75;0.60;;;;;;;;;;5074355;28;20055;-62
2022/06/08 07:51:44;;;;;;;2.33;0.52;;;;;;;;;;5074101;28;20043;-64
2022/06/08 07:54:11;;;;;;;3.05;0.50;;;;;;;;;;5074647;28;20056;-64
2022/06/08 07:56:37;;;;;;;4.95;0.82;;;;;;;;;;5074563;28;20485;-63
2022/06/08 07:59:03;;;;;;;2.42;0.38;;;;;;;;;;5075202;28;20035;-63
2022/06/08 08:01:30;;;;;;;3.38;0.68;;;;;;;;;;5075461;28;20066;-63
2022/06/08 08:03:56;;;;;;;5.53;0.50;;;;;;;;;;5075614;28;20032;-64
2022/06/08 08:06:22;;;;;;;4.70;0.57;;;;;;;;;;5075444;28;20055;-63
2022/06/08 08:08:48;;;;;;;2.60;0.55;;;;;;;;;;5075327;28;20055;-64
2022/06/08 08:11:14;;;;;;;0.70;0.57;;;;;;;;;;5075397;28;20401;-65
2022/06/08 08:13:40;;;;;;;5.85;0.70;;;;;;;;;;5075320;28;20029;-63
2022/06/08 08:16:07;;;;;;;1.65;0.43;;;;;;;;;;5075430;28;20090;-64
2022/06/08 08:18:33;;;;;;;4.43;0.60;;;;;;;;;;5075502;28;20389;-63
2022/06/08 08:20:59;;;;;;;3.58;0.60;;;;;;;;;;5073728;28;20036;-64
2022/06/08 08:23:25;;;;;;;6.68;0.80;;;;;;;;;;5075448;28;20033;-64
2022/06/08 08:25:52;;;;;;;1.52;0.60;;;;;;;;;;5075105;28;20083;-65
2022/06/08 08:28:18;;;;;;;3.83;0.60;;;;;;;;;;5075414;28;20029;-64
2022/06/08 08:30:44;;;;;;;2.65;0.75;;;;;;;;;;5075154;28;20032;-64
2022/06/08 08:33:10;;;;;;;7.68;0.85;;;;;;;;;;5075189;28;20099;-64
2022/06/08 08:35:36;;;;;;;5.13;0.65;;;;;;;;;;5074850;28;20037;-65
2022/06/08 08:38:02;;;;;;;2.60;0.65;;;;;;;;;;5074902;28;20053;-64
2022/06/08 08:40:49;;;;;;;12.07;0.95;;;;;;;;;;5075097;28;20036;-64
2022/06/08 08:43:19;;;;;;;6.10;1.00;;;;;;;;;;5074766;28;20029;-64
2022/06/08 08:46:02;;;;;;;2.80;0.80;;;;;;;;;;5074624;28;20045;-65
2022/06/08 08:48:29;;;;;;;4.75;0.85;;;;;;;;;;5075115;28;20039;-64
2022/06/08 08:51:06;;;;;;;1.73;0.73;;;;;;;;;;5075197;28;20381;-65
2022/06/08 08:53:41;;;;;;;4.72;0.80;;;;;;;;;;5074881;28;20040;-64
2022/06/08 08:56:13;;;;;;;1.90;0.50;;;;;;;;;;5074723;28;20053;-64
2022/06/08 08:58:41;;;;;;;;;;;25.20;62.10;;;;;;5075160;28;20051;-62
2022/06/08 09:01:33;;;;;;;1.45;0.63;;;24.00;69.60;;;;;;5074769;28;19911;-62
2022/06/08 09:04:11;;;;;;;9.13;0.80;;;;;;;;;;5074463;28;20037;-62
2022/06/08 09:06:37;;;;;;;3.67;0.60;;;;;;;;;;5074476;28;20128;-68
2022/06/08 09:09:06;;;;;;;4.15;0.90;;;;;;;;;;5074529;28;20032;-62
2022/06/08 09:11:40;;;;;;;6.90;0.88;;;;;;;;;;5074404;28;20043;-62
2022/06/08 09:14:13;;;;;;;9.02;0.77;;;;;;;;;;5074251;28;20028;-63
2022/06/08 09:16:45;;;;;;;4.32;0.60;;;;;;;;;;5074414;28;20060;-62
2022/06/08 09:19:26;;;;;;;5.13;0.80;;;;;;;;;;5073938;28;20081;-62
2022/06/08 09:22:00;;;;;;;3.35;0.40;;;;;;;;;;5074546;28;20431;-62
2022/06/08 09:24:32;;;;;;;3.38;0.60;;;;;;;;;;5074551;28;21126;-63
2022/06/08 09:27:11;;;;;;;4.93;0.88;;;;;;;;;;5073852;28;20118;-63
2022/06/08 09:29:46;;;;;;;2.38;0.50;;;;;;;;;;5073977;28;20033;-63
2022/06/08 09:32:30;;;;;;;1.55;0.60;;;;;;;;;;5073850;28;20032;-63
2022/06/08 09:34:58;;;;;;;3.25;0.70;;;;;;;;;;5074093;28;20031;-63
2022/06/08 09:37:26;;;;;;;0.95;0.47;;;;;;;;;;5073671;28;20059;-62
2022/06/08 09:39:57;;;;;;;3.28;0.50;;;;;;;;;;5073641;28;20089;-62
2022/06/08 09:42:23;;;;;;;1.38;0.40;;;;;;;;;;5073394;28;20086;-62
2022/06/08 09:45:12;;;;;;;1.00;0.50;;;;;;;;;;5073636;28;20047;-62
2022/06/08 09:53:16;;;;;;;0.40;0.40;;;;;;;;;;5073859;28;20177;-63
2022/06/08 09:55:49;;;;;;;5.03;0.93;;;;;;;;;;5073582;28;20529;-63
2022/06/08 09:58:18;;;;;;;1.63;0.40;;;;;;;;;;5073705;28;20024;-63
2022/06/08 10:00:57;;;;;;;2.80;0.60;;;;;;;;;;5073294;28;20417;-62
2022/06/08 10:03:24;;;;;;;2.72;0.95;;;;;;;;;;5073323;28;20107;-63
2022/06/08 10:06:00;;;;;;;4.07;0.60;;;;;;;;;;5073672;28;20036;-63
2022/06/08 10:08:28;;;;;;;1.27;0.50;;;;;;;;;;5073460;28;20435;-62
2022/06/08 10:14:01;;;;;;;0.80;0.30;;;;;;;;;;5073333;28;20044;-63
2022/06/08 10:16:28;;;;;;;1.77;0.40;;;;;;;;;;5073048;28;20504;-65
2022/06/08 10:19:01;;;;;;;6.35;0.43;;;;;;;;;;5073163;28;20089;-63
2022/06/08 10:21:32;;;;;;;3.22;0.55;;;;;;;;;;5073069;28;20504;-63
2022/06/08 10:23:58;;;;;;;1.80;0.30;;;;;;;;;;5072619;28;20495;-63
2022/06/08 10:26:34;;;;;;;2.20;0.38;;;;;;;;;;5072332;28;20040;-63
2022/06/08 10:29:00;;;;;;;2.70;0.30;;;;;;;;;;5071065;28;20031;-63
2022/06/08 10:31:31;;;;;;;3.22;0.70;;;;;;;;;;5072250;28;20467;-62
2022/06/08 10:34:04;;;;;;;2.63;0.30;;;;;;;;;;5072673;28;20139;-62
2022/06/08 10:36:31;;;;;;;0.30;0.30;;;;;;;;;;5072558;28;20116;-66
2022/06/08 10:38:59;;;;;;;1.17;0.30;;;;;;;;;;5072022;28;20060;-63
2022/06/08 10:44:28;;;;;;;5.53;0.30;;;;;;;;;;5072836;28;20170;-63
2022/06/08 10:46:55;;;;;;;2.22;0.40;;;;;;;;;;5072264;28;20048;-62
2022/06/08 10:49:30;;;;;;;0.73;0.20;;;;;;;;;;5072218;28;20081;-62
2022/06/08 10:52:15;;;;;;;1.10;0.30;;;;;;;;;;5071788;28;20061;-66
2022/06/08 10:54:54;;;;;;;1.48;0.40;;;;;;;;;;5073436;28;20025;-63
2022/06/08 10:57:35;;;;;;;1.35;0.50;;;;;;;;;;5080762;28;20042;-62
2022/06/08 11:00:19;;;;;;;5.78;0.52;;;;;;;;;;5096191;28;20040;-70
2022/06/08 11:02:51;;;;;;;1.10;0.40;;;;;;;;;;5096487;28;20024;-63
2022/06/08 11:05:28;;;;;;;0.80;0.40;;;;;;;;;;5096483;28;20036;-63
2022/06/08 11:08:06;;;;;;;4.15;0.30;;;;;;;;;;5095644;28;20142;-62
2022/06/08 11:10:45;;;;;;;2.00;0.60;;;;;;;;;;5096493;28;20516;-63
2022/06/08 11:13:24;;;;;;;2.80;0.40;;;;;;;;;;5096457;28;20028;-63
2022/06/08 11:15:53;;;;;;;2.60;0.52;;;;;;;;;;5096365;28;20097;-63
2022/06/08 11:18:19;;;;;;;1.67;0.52;;;;;;;;;;5090504;28;20085;-63
2022/06/08 11:20:48;;;;;;;2.65;0.30;;;;;;;;;;5096605;28;20117;-63
2022/06/08 11:23:33;;;;;;;1.77;0.30;;;;;;;;;;5096792;28;20032;-63
2022/06/08 11:26:04;;;;;;;1.00;0.30;;;;;;;;;;5096316;28;20036;-64
2022/06/08 11:28:30;;;;;;;;;;;;;;;;;;5096763;28;20361;-63
2022/06/08 11:31:02;;;;;;;4.15;1.15;;;;;;;;;;5096144;28;19904;-63
2022/06/08 11:33:47;;;;;;;0.98;0.30;;;;;;;;;;5088968;28;20063;-63
2022/06/08 11:36:16;;;;;;;3.33;0.43;;;;;;;;;;5091781;28;20040;-63
2022/06/08 11:38:54;;;;;;;1.38;0.30;;;;;;;;;;5093335;28;20044;-70
2022/06/08 11:41:20;;;;;;;5.85;0.50;;;;;;;;;;5095537;28;20115;-62
2022/06/08 11:43:47;;;;;;;0.68;0.30;;;;;;;;;;5094882;28;20566;-63
2022/06/08 11:46:20;;;;;;;3.40;0.50;;;;;;;;;;5096008;28;20048;-63
2022/06/08 11:48:49;;;;;;;3.65;0.40;;;;;;;;;;5095727;28;20064;-63
2022/06/08 11:51:29;;;;;;;2.38;0.35;;;;;;;;;;5095951;28;20118;-64
2022/06/08 11:53:58;;;;;;;0.82;0.30;;;;;;;;;;5095698;28;20036;-64
2022/06/08 11:56:30;;;;;;;0.77;0.45;;;;;;;;;;5095423;28;20036;-63
2022/06/08 11:58:58;;;;;;;3.17;0.60;;;;;;;;;;5095870;28;20485;-63
2022/06/08 12:01:26;;;;;;;0.85;0.30;;;;;;;;;;5095847;28;20492;-63
2022/06/08 12:03:58;;;;;;;1.63;0.30;;;;;;;;;;5095395;28;20040;-62
2022/06/08 12:06:26;;;;;;;3.08;0.55;;;;;;;;;;5094869;28;20062;-63
2022/06/08 12:08:58;;;;;;;0.43;0.40;;;;;;;;;;5095406;28;20028;-63
2022/06/08 12:11:24;;;;;;;;;;;;;;;;;;5095644;28;20124;-63
2022/06/08 12:13:54;;;;;;;1.95;0.50;;;;;;;;;;5095512;28;19987;-63
2022/06/08 12:16:23;;;;;;;1.83;0.35;;;;;;;;;;5095368;28;20020;-63
2022/06/08 12:18:53;;;;;;;3.08;0.47;;;;;;;;;;5094996;28;20222;-64
2022/06/08 12:21:34;;;;;;;2.40;0.35;;;;;;;;;;5095239;28;20044;-63
2022/06/08 12:24:00;;;;;;;2.63;0.40;;;;;;;;;;5092704;28;20044;-63
2022/06/08 12:26:27;;;;;;;2.70;0.52;;;;;;;;;;5092193;28;20044;-63
2022/06/08 12:29:17;;;;;;;2.45;0.30;;;;;;;;;;5094312;28;20062;-63
2022/06/08 12:31:44;;;;;;;0.75;0.30;;;;;;;;;;5095297;28;20114;-62
2022/06/08 12:34:29;;;;;;;2.35;0.40;;;;;;;;;;5095633;28;20028;-62
2022/06/08 12:36:55;;;;;;;0.73;0.30;;;;;;;;;;5095294;28;20032;-63
2022/06/08 12:39:25;;;;;;;0.93;0.38;;;;;;;;;;5095111;28;20090;-63
2022/06/08 12:41:54;;;;;;;0.70;0.40;;;;;;;;;;5095059;28;20035;-62
2022/06/08 12:44:20;;;;;;;2.45;0.40;;;;;;;;;;5094009;28;20086;-63
2022/06/08 12:47:09;;;;;;;0.82;0.70;;;;;;;;;;5094609;28;20048;-63
2022/06/08 12:49:41;;;;;;;1.10;0.47;;;;;;;;;;5084118;28;20032;-63
2022/06/08 12:52:07;;;;;;;;;;;;;;;;;;5095072;28;20060;-62
2022/06/08 12:54:35;;;;;;;1.27;0.40;;;;;;;;;;5094842;28;19908;-62
2022/06/08 12:57:09;;;;;;;0.95;0.30;;;;;;;;;;5094755;28;20035;-63
2022/06/08 12:59:37;;;;;;;2.78;1.10;;;;;;;;;;5094752;28;20565;-62
2022/06/08 13:02:10;;;;;;;0.68;0.40;;;;;;;;;;5094561;28;20504;-63
2022/06/08 13:04:36;;;;;;;1.98;0.43;;;;;;;;;;5094681;28;20086;-63
2022/06/08 13:07:02;;;;;;;0.40;0.22;;;;;;;;;;5094862;28;20071;-63
2022/06/08 13:09:28;;;;;;;5.00;0.40;;;;;;;;;;5094994;28;20024;-63
2022/06/08 13:11:56;;;;;;;1.95;0.50;;;;;;;;;;5094751;28;20378;-63
2022/06/08 13:14:22;;;;;;;1.25;0.40;;;;;;;;;;5094665;28;20484;-62
2022/06/08 13:16:49;;;;;;;3.78;1.00;;;;;;;;;;5094423;28;20063;-62
2022/06/08 13:19:16;;;;;;;0.70;0.30;;;;;;;;;;5094800;28;20047;-63
2022/06/08 13:21:43;;;;;;;0.90;0.30;;;;;;;;;;5094444;28;20046;-63
2022/06/08 13:24:12;;;;;;;0.85;0.35;;;;;;;;;;5094265;28;20032;-63
2022/06/08 13:26:40;;;;;;;5.95;0.82;;;;;;;;;;5094339;28;20044;-63
2022/06/08 13:29:06;;;;;;;1.92;0.30;;;;;;;;;;5093745;28;20139;-64
2022/06/08 13:31:33;;;;;;;2.22;0.38;;;;;;;;;;5093686;28;20035;-63
2022/06/08 13:34:03;;;;;;;1.75;0.50;;;;;;;;;;5093846;28;20141;-63
2022/06/08 13:36:47;;;;;;;2.72;0.40;;;;;;;;;;5093815;28;20040;-63
2022/06/08 13:39:19;;;;;;;2.03;0.40;;;;;;;;;;5053708;28;20448;-63
2022/06/08 13:41:45;;;;;;;;;;;;;;;;;;5054216;28;20029;-64
2022/06/08 13:44:17;;;;;;;1.23;0.50;;;;;;;;;;5053836;28;19905;-63
2022/06/08 13:46:44;;;;;;;0.65;0.40;;;;;;;;;;5053428;28;20044;-63
2022/06/08 13:49:11;;;;;;;2.90;0.40;;;;;;;;;;5053146;28;20393;-63
2022/06/08 13:51:37;;;;;;;2.13;0.30;;;;;;;;;;5052373;28;20044;-62
2022/06/08 13:54:04;;;;;;;2.05;0.43;;;;;;;;;;5053138;28;20029;-62
2022/06/08 13:56:30;;;;;;;0.98;0.43;;;;;;;;;;5053601;28;20436;-63
2022/06/08 13:58:57;;;;;;;0.45;0.40;;;;;;;;;;5052954;28;20037;-62
2022/06/08 14:01:23;;;;;;;2.90;0.30;;;;;;;;;;5052847;28;20037;-63
2022/06/08 14:03:49;;;;;;;2.20;0.40;;;;;;;;;;5053293;28;20044;-63
2022/06/08 14:14:32;;;;;;;0.75;0.30;;;;;;;;;;5053784;28;20448;-63
2022/06/08 14:17:00;;;;;;;1.65;0.40;;;;;;;;;;5053351;28;20488;-62
2022/06/08 14:19:28;;;;;;;1.08;0.30;;;;;;;;;;5053213;28;20444;-63
2022/06/08 14:21:56;;;;;;;0.57;0.40;;;;;;;;;;5053435;28;20044;-63
2022/06/08 14:24:22;;;;;;;1.42;0.35;;;;;;;;;;5053360;28;20513;-63
2022/06/08 14:26:48;;;;;;;1.42;0.60;;;;;;;;;;5053133;28;20481;-63
2022/06/08 14:29:15;;;;;;;3.75;0.30;;;;;;;;;;5052598;28;20033;-62
2022/06/08 14:31:42;;;;;;;2.97;0.45;;;;;;;;;;5053014;28;20036;-63
2022/06/08 14:34:37;;;;;;;0.85;0.40;;;;;;;;;;5053391;28;20033;-63
2022/06/08 14:37:04;;;;;;;5.07;0.45;;;;;;;;;;5050309;28;20093;-63
2022/06/08 14:39:32;;;;;;;2.22;0.50;;;;;;;;;;5093296;28;20038;-64
2022/06/08 14:41:59;;;;;;;0.93;0.38;;;;;;;;;;5093240;28;20040;-63
2022/06/08 14:44:25;;;;;;;1.13;0.30;;;;;;;;;;5093118;28;20055;-62
2022/06/08 14:46:51;;;;;;;1.25;0.40;;;;;;;;;;5093055;28;20059;-62
2022/06/08 14:49:20;;;;;;;1.75;0.40;;;;;;;;;;5093277;28;20029;-63
2022/06/08 14:51:47;;;;;;;3.42;0.38;;;;;;;;;;5093192;28;20028;-62
2022/06/08 14:54:18;;;;;;;0.82;0.35;;;;;;;;;;5093181;28;20365;-63
2022/06/08 14:56:44;;;;;;;0.90;0.47;;;;;;;;;;5093318;28;20106;-62
2022/06/08 14:59:18;;;;;;;1.63;0.32;;;;;;;;;;5092966;28;20069;-63
2022/06/08 15:01:45;;;;;;;1.77;0.40;;;;;;;;;;5093232;28;20032;-63
2022/06/08 15:04:15;;;;;;;0.98;0.52;;;;;;;;;;5093001;28;20056;-62
2022/06/08 15:06:41;;;;;;;3.00;0.52;;;;;;;;;;5092845;28;20492;-62
2022/06/08 15:09:08;;;;;;;2.00;0.50;;;;;;;;;;5092941;28;20082;-63
2022/06/08 15:14:20;;;;;;;4.10;0.50;;;;;;;;;;5092601;28;20027;-62
2022/06/08 15:16:46;;;;;;;2.30;0.60;;;;;;;;;;5091961;28;20036;-62
2022/06/08 15:19:18;;;;;;;2.85;0.63;;;;;;;;;;5092387;28;20085;-62
2022/06/08 15:21:44;;;;;;;3.95;0.40;;;;;;;;;;5090432;28;20408;-63
2022/06/08 15:24:11;;;;;;;1.55;0.50;;;;;;;;;;5089583;28;20080;-63
2022/06/08 15:26:37;;;;;;;2.20;0.55;;;;;;;;;;5089586;28;20206;-64